sensor_id;sensor_type;location;lat;lon;timestamp;P1;durP1;ratioP1;P2;durP2;ratioP2
55362;SDS011;41244;49.242;9.060;2023-08-24T00:01:36;7.97;;;6.00;;
55362;SDS011;41244;49.242;9.060;2023-08-24T00:04:02;6.40;;;5.80;;
55362;SDS011;41244;49.242;9.060;2023-08-24T00:06:28;7.18;;;5.53;;
55362;SDS011;41244;49.242;9.060;2023-08-24T00:08:54;6.13;;;5.45;;
55362;SDS011;41244;49.242;9.060;2023-08-24T00:11:20;7.60;;;5.55;;
55362;SDS011;41244;49.242;9.060;2023-08-24T00:13:45;7.70;;;5.78;;
55362;SDS011;41244;49.242;9.060;2023-08-24T00:16:17;7.55;;;5.95;;
55362;SDS011;41244;49.242;9.060;2023-08-24T00:18:44;8.55;;;6.07;;
55362;SDS011;41244;49.242;9.060;2023-08-24T00:21:10;8.25;;;5.57;;
55362;SDS011;41244;49.242;9.060;2023-08-24T00:23:38;7.43;;;5.97;;
55362;SDS011;41244;49.242;9.060;2023-08-24T00:26:04;6.80;;;6.10;;
55362;SDS011;41244;49.242;9.060;2023-08-24T00:28:30;8.20;;;6.22;;
55362;SDS011;41244;49.242;9.060;2023-08-24T00:30:55;6.95;;;5.93;;
55362;SDS011;41244;49.242;9.060;2023-08-24T00:33:21;7.50;;;6.40;;
55362;SDS011;41244;49.242;9.060;2023-08-24T00:35:47;6.95;;;6.25;;
55362;SDS011;41244;49.242;9.060;2023-08-24T00:38:13;11.02;;;6.15;;
55362;SDS011;41244;49.242;9.060;2023-08-24T00:40:40;6.03;;;5.25;;
55362;SDS011;41244;49.242;9.060;2023-08-24T00:43:08;5.88;;;5.32;;
55362;SDS011;41244;49.242;9.060;2023-08-24T00:45:34;9.20;;;6.35;;
55362;SDS011;41244;49.242;9.060;2023-08-24T00:48:01;6.60;;;5.95;;
55362;SDS011;41244;49.242;9.060;2023-08-24T00:50:27;6.72;;;5.90;;
55362;SDS011;41244;49.242;9.060;2023-08-24T00:52:53;8.70;;;6.00;;
55362;SDS011;41244;49.242;9.060;2023-08-24T00:55:19;8.23;;;6.10;;
55362;SDS011;41244;49.242;9.060;2023-08-24T00:57:45;7.30;;;5.75;;
55362;SDS011;41244;49.242;9.060;2023-08-24T01:00:12;6.55;;;5.85;;
55362;SDS011;41244;49.242;9.060;2023-08-24T01:02:39;8.07;;;6.28;;
55362;SDS011;41244;49.242;9.060;2023-08-24T01:05:05;7.97;;;5.70;;
55362;SDS011;41244;49.242;9.060;2023-08-24T01:07:35;10.07;;;6.25;;
55362;SDS011;41244;49.242;9.060;2023-08-24T01:10:04;8.75;;;6.00;;
55362;SDS011;41244;49.242;9.060;2023-08-24T01:15:37;6.80;;;6.13;;
55362;SDS011;41244;49.242;9.060;2023-08-24T01:18:23;6.55;;;5.93;;
55362;SDS011;41244;49.242;9.060;2023-08-24T01:20:52;7.57;;;5.90;;
55362;SDS011;41244;49.242;9.060;2023-08-24T01:23:34;9.15;;;5.78;;
55362;SDS011;41244;49.242;9.060;2023-08-24T01:26:20;7.95;;;6.93;;
55362;SDS011;41244;49.242;9.060;2023-08-24T01:28:46;8.40;;;6.95;;
55362;SDS011;41244;49.242;9.060;2023-08-24T01:31:13;8.23;;;6.50;;
55362;SDS011;41244;49.242;9.060;2023-08-24T01:33:41;7.80;;;6.25;;
55362;SDS011;41244;49.242;9.060;2023-08-24T01:36:07;7.35;;;6.65;;
55362;SDS011;41244;49.242;9.060;2023-08-24T01:38:34;6.97;;;6.28;;
55362;SDS011;41244;49.242;9.060;2023-08-24T01:41:09;7.60;;;6.53;;
55362;SDS011;41244;49.242;9.060;2023-08-24T01:43:49;7.13;;;6.50;;
55362;SDS011;41244;49.242;9.060;2023-08-24T01:46:19;7.32;;;6.63;;
55362;SDS011;41244;49.242;9.060;2023-08-24T01:48:46;7.03;;;6.13;;
55362;SDS011;41244;49.242;9.060;2023-08-24T01:51:13;6.65;;;5.93;;
55362;SDS011;41244;49.242;9.060;2023-08-24T01:53:40;6.88;;;6.25;;
55362;SDS011;41244;49.242;9.060;2023-08-24T01:56:12;7.55;;;6.85;;
55362;SDS011;41244;49.242;9.060;2023-08-24T01:58:40;6.60;;;6.00;;
55362;SDS011;41244;49.242;9.060;2023-08-24T02:01:06;7.85;;;7.13;;
55362;SDS011;41244;49.242;9.060;2023-08-24T02:03:34;9.80;;;6.82;;
55362;SDS011;41244;49.242;9.060;2023-08-24T02:05:59;7.55;;;6.75;;
55362;SDS011;41244;49.242;9.060;2023-08-24T02:08:25;9.68;;;7.35;;
55362;SDS011;41244;49.242;9.060;2023-08-24T02:10:51;7.90;;;7.07;;
55362;SDS011;41244;49.242;9.060;2023-08-24T02:13:17;8.75;;;7.85;;
55362;SDS011;41244;49.242;9.060;2023-08-24T02:15:43;10.27;;;7.53;;
55362;SDS011;41244;49.242;9.060;2023-08-24T02:18:08;9.07;;;6.85;;
55362;SDS011;41244;49.242;9.060;2023-08-24T02:20:35;7.57;;;6.53;;
55362;SDS011;41244;49.242;9.060;2023-08-24T02:23:02;8.15;;;7.35;;
55362;SDS011;41244;49.242;9.060;2023-08-24T02:25:28;7.53;;;6.75;;
55362;SDS011;41244;49.242;9.060;2023-08-24T02:27:55;7.50;;;6.65;;
55362;SDS011;41244;49.242;9.060;2023-08-24T02:30:20;7.10;;;6.40;;
55362;SDS011;41244;49.242;9.060;2023-08-24T02:32:46;9.15;;;7.00;;
55362;SDS011;41244;49.242;9.060;2023-08-24T02:35:12;7.07;;;6.38;;
55362;SDS011;41244;49.242;9.060;2023-08-24T02:37:38;8.70;;;7.25;;
55362;SDS011;41244;49.242;9.060;2023-08-24T02:40:04;7.53;;;6.82;;
55362;SDS011;41244;49.242;9.060;2023-08-24T02:42:31;10.40;;;6.68;;
55362;SDS011;41244;49.242;9.060;2023-08-24T02:44:58;7.53;;;6.65;;
55362;SDS011;41244;49.242;9.060;2023-08-24T02:47:23;7.50;;;6.80;;
55362;SDS011;41244;49.242;9.060;2023-08-24T02:49:50;7.60;;;6.90;;
55362;SDS011;41244;49.242;9.060;2023-08-24T02:52:16;7.88;;;7.05;;
55362;SDS011;41244;49.242;9.060;2023-08-24T02:54:42;7.85;;;7.05;;
55362;SDS011;41244;49.242;9.060;2023-08-24T02:57:08;8.73;;;7.07;;
55362;SDS011;41244;49.242;9.060;2023-08-24T02:59:34;7.80;;;6.82;;
55362;SDS011;41244;49.242;9.060;2023-08-24T03:01:59;7.38;;;6.68;;
55362;SDS011;41244;49.242;9.060;2023-08-24T03:04:25;8.27;;;7.25;;
55362;SDS011;41244;49.242;9.060;2023-08-24T03:06:51;9.05;;;7.43;;
55362;SDS011;41244;49.242;9.060;2023-08-24T03:09:17;9.40;;;7.22;;
55362;SDS011;41244;49.242;9.060;2023-08-24T03:11:43;9.20;;;7.35;;
55362;SDS011;41244;49.242;9.060;2023-08-24T03:14:09;8.45;;;7.15;;
55362;SDS011;41244;49.242;9.060;2023-08-24T03:16:35;7.68;;;6.97;;
55362;SDS011;41244;49.242;9.060;2023-08-24T03:19:04;13.75;;;6.45;;
55362;SDS011;41244;49.242;9.060;2023-08-24T03:21:29;7.20;;;6.53;;
55362;SDS011;41244;49.242;9.060;2023-08-24T03:23:55;9.02;;;6.70;;
55362;SDS011;41244;49.242;9.060;2023-08-24T03:26:21;9.55;;;6.40;;
55362;SDS011;41244;49.242;9.060;2023-08-24T03:28:48;7.45;;;6.68;;
55362;SDS011;41244;49.242;9.060;2023-08-24T03:31:14;7.45;;;6.55;;
55362;SDS011;41244;49.242;9.060;2023-08-24T03:33:41;7.10;;;6.38;;
55362;SDS011;41244;49.242;9.060;2023-08-24T03:36:06;9.68;;;6.20;;
55362;SDS011;41244;49.242;9.060;2023-08-24T03:38:32;6.32;;;5.40;;
55362;SDS011;41244;49.242;9.060;2023-08-24T03:41:02;9.13;;;6.05;;
55362;SDS011;41244;49.242;9.060;2023-08-24T03:43:30;7.40;;;6.50;;
55362;SDS011;41244;49.242;9.060;2023-08-24T03:45:58;6.18;;;5.60;;
55362;SDS011;41244;49.242;9.060;2023-08-24T03:48:24;7.03;;;5.55;;
55362;SDS011;41244;49.242;9.060;2023-08-24T03:50:49;6.63;;;5.85;;
55362;SDS011;41244;49.242;9.060;2023-08-24T03:53:19;7.07;;;5.38;;
55362;SDS011;41244;49.242;9.060;2023-08-24T03:55:47;5.88;;;5.28;;
55362;SDS011;41244;49.242;9.060;2023-08-24T03:58:15;12.55;;;8.77;;
55362;SDS011;41244;49.242;9.060;2023-08-24T04:00:42;9.88;;;7.40;;
55362;SDS011;41244;49.242;9.060;2023-08-24T04:03:08;8.05;;;5.20;;
55362;SDS011;41244;49.242;9.060;2023-08-24T04:05:34;10.45;;;5.35;;
55362;SDS011;41244;49.242;9.060;2023-08-24T04:08:00;7.25;;;5.13;;
55362;SDS011;41244;49.242;9.060;2023-08-24T04:10:27;6.10;;;5.00;;
55362;SDS011;41244;49.242;9.060;2023-08-24T04:12:54;5.63;;;5.07;;
55362;SDS011;41244;49.242;9.060;2023-08-24T04:15:20;5.47;;;4.85;;
55362;SDS011;41244;49.242;9.060;2023-08-24T04:17:46;6.45;;;4.93;;
55362;SDS011;41244;49.242;9.060;2023-08-24T04:20:11;6.10;;;4.63;;
55362;SDS011;41244;49.242;9.060;2023-08-24T04:22:37;7.65;;;5.22;;
55362;SDS011;41244;49.242;9.060;2023-08-24T04:25:03;6.65;;;4.82;;
55362;SDS011;41244;49.242;9.060;2023-08-24T04:27:31;6.05;;;5.10;;
55362;SDS011;41244;49.242;9.060;2023-08-24T04:29:57;9.23;;;5.30;;
55362;SDS011;41244;49.242;9.060;2023-08-24T04:32:23;6.20;;;4.53;;
55362;SDS011;41244;49.242;9.060;2023-08-24T04:34:49;7.13;;;4.50;;
55362;SDS011;41244;49.242;9.060;2023-08-24T04:37:15;5.20;;;4.78;;
55362;SDS011;41244;49.242;9.060;2023-08-24T04:39:41;8.95;;;5.00;;
55362;SDS011;41244;49.242;9.060;2023-08-24T04:42:07;7.25;;;4.63;;
55362;SDS011;41244;49.242;9.060;2023-08-24T04:44:33;4.50;;;4.10;;
55362;SDS011;41244;49.242;9.060;2023-08-24T04:46:59;7.20;;;4.93;;
55362;SDS011;41244;49.242;9.060;2023-08-24T04:49:25;5.95;;;5.03;;
55362;SDS011;41244;49.242;9.060;2023-08-24T04:51:50;7.88;;;5.32;;
55362;SDS011;41244;49.242;9.060;2023-08-24T04:54:16;6.72;;;4.40;;
55362;SDS011;41244;49.242;9.060;2023-08-24T04:56:42;6.60;;;5.07;;
55362;SDS011;41244;49.242;9.060;2023-08-24T04:59:08;6.85;;;4.78;;
55362;SDS011;41244;49.242;9.060;2023-08-24T05:01:34;7.93;;;5.15;;
55362;SDS011;41244;49.242;9.060;2023-08-24T05:04:00;5.40;;;4.90;;
55362;SDS011;41244;49.242;9.060;2023-08-24T05:06:26;6.30;;;4.70;;
55362;SDS011;41244;49.242;9.060;2023-08-24T05:08:52;6.50;;;4.95;;
55362;SDS011;41244;49.242;9.060;2023-08-24T05:11:18;8.20;;;4.82;;
55362;SDS011;41244;49.242;9.060;2023-08-24T05:13:47;9.98;;;7.85;;
55362;SDS011;41244;49.242;9.060;2023-08-24T05:16:13;12.18;;;5.65;;
55362;SDS011;41244;49.242;9.060;2023-08-24T05:18:39;6.53;;;4.70;;
55362;SDS011;41244;49.242;9.060;2023-08-24T05:21:05;7.65;;;4.90;;
55362;SDS011;41244;49.242;9.060;2023-08-24T05:23:31;4.93;;;4.47;;
55362;SDS011;41244;49.242;9.060;2023-08-24T05:25:58;5.03;;;4.40;;
55362;SDS011;41244;49.242;9.060;2023-08-24T05:28:25;8.15;;;4.90;;
55362;SDS011;41244;49.242;9.060;2023-08-24T05:30:53;7.50;;;4.95;;
55362;SDS011;41244;49.242;9.060;2023-08-24T05:33:19;5.65;;;4.35;;
55362;SDS011;41244;49.242;9.060;2023-08-24T05:35:46;8.13;;;5.20;;
55362;SDS011;41244;49.242;9.060;2023-08-24T05:38:12;5.35;;;4.43;;
55362;SDS011;41244;49.242;9.060;2023-08-24T05:40:39;4.90;;;4.40;;
55362;SDS011;41244;49.242;9.060;2023-08-24T05:43:06;8.18;;;4.70;;
55362;SDS011;41244;49.242;9.060;2023-08-24T05:45:32;5.85;;;4.25;;
55362;SDS011;41244;49.242;9.060;2023-08-24T05:47:57;6.60;;;4.55;;
55362;SDS011;41244;49.242;9.060;2023-08-24T05:50:24;7.25;;;4.90;;
55362;SDS011;41244;49.242;9.060;2023-08-24T05:52:49;5.53;;;4.35;;
55362;SDS011;41244;49.242;9.060;2023-08-24T05:55:15;8.60;;;4.40;;
55362;SDS011;41244;49.242;9.060;2023-08-24T05:57:41;9.57;;;5.25;;
55362;SDS011;41244;49.242;9.060;2023-08-24T06:00:07;4.75;;;4.28;;
55362;SDS011;41244;49.242;9.060;2023-08-24T06:02:35;5.70;;;4.20;;
55362;SDS011;41244;49.242;9.060;2023-08-24T06:05:04;12.55;;;4.65;;
55362;SDS011;41244;49.242;9.060;2023-08-24T06:07:31;6.50;;;4.03;;
55362;SDS011;41244;49.242;9.060;2023-08-24T06:09:57;10.63;;;4.13;;
55362;SDS011;41244;49.242;9.060;2023-08-24T06:12:23;6.68;;;4.00;;
55362;SDS011;41244;49.242;9.060;2023-08-24T06:14:49;5.38;;;3.67;;
55362;SDS011;41244;49.242;9.060;2023-08-24T06:17:15;8.05;;;4.07;;
55362;SDS011;41244;49.242;9.060;2023-08-24T06:19:41;5.53;;;3.85;;
55362;SDS011;41244;49.242;9.060;2023-08-24T06:22:06;7.45;;;4.25;;
55362;SDS011;41244;49.242;9.060;2023-08-24T06:24:32;9.00;;;3.92;;
55362;SDS011;41244;49.242;9.060;2023-08-24T06:26:58;4.80;;;4.00;;
55362;SDS011;41244;49.242;9.060;2023-08-24T06:29:24;6.82;;;5.05;;
55362;SDS011;41244;49.242;9.060;2023-08-24T06:31:49;7.72;;;4.00;;
55362;SDS011;41244;49.242;9.060;2023-08-24T06:34:15;6.68;;;4.32;;
55362;SDS011;41244;49.242;9.060;2023-08-24T06:36:41;5.30;;;4.15;;
55362;SDS011;41244;49.242;9.060;2023-08-24T06:39:07;6.43;;;3.80;;
55362;SDS011;41244;49.242;9.060;2023-08-24T06:41:36;4.85;;;4.05;;
55362;SDS011;41244;49.242;9.060;2023-08-24T06:44:02;4.97;;;3.70;;
55362;SDS011;41244;49.242;9.060;2023-08-24T06:46:28;5.13;;;3.60;;
55362;SDS011;41244;49.242;9.060;2023-08-24T06:48:54;5.18;;;3.90;;
55362;SDS011;41244;49.242;9.060;2023-08-24T06:51:20;7.28;;;4.18;;
55362;SDS011;41244;49.242;9.060;2023-08-24T06:53:46;7.30;;;3.97;;
55362;SDS011;41244;49.242;9.060;2023-08-24T06:56:13;5.47;;;4.00;;
55362;SDS011;41244;49.242;9.060;2023-08-24T06:58:40;7.38;;;3.75;;
55362;SDS011;41244;49.242;9.060;2023-08-24T07:01:06;5.18;;;3.75;;
55362;SDS011;41244;49.242;9.060;2023-08-24T07:03:32;6.60;;;3.55;;
55362;SDS011;41244;49.242;9.060;2023-08-24T07:05:58;5.55;;;4.00;;
55362;SDS011;41244;49.242;9.060;2023-08-24T07:08:24;6.97;;;3.78;;
55362;SDS011;41244;49.242;9.060;2023-08-24T07:10:50;6.60;;;3.78;;
55362;SDS011;41244;49.242;9.060;2023-08-24T07:13:16;7.50;;;3.95;;
55362;SDS011;41244;49.242;9.060;2023-08-24T07:15:42;8.35;;;3.83;;
55362;SDS011;41244;49.242;9.060;2023-08-24T07:18:08;8.27;;;3.88;;
55362;SDS011;41244;49.242;9.060;2023-08-24T07:20:34;5.95;;;4.10;;
55362;SDS011;41244;49.242;9.060;2023-08-24T07:23:00;5.40;;;3.50;;
55362;SDS011;41244;49.242;9.060;2023-08-24T07:25:26;5.00;;;3.60;;
55362;SDS011;41244;49.242;9.060;2023-08-24T07:27:53;9.68;;;3.60;;
55362;SDS011;41244;49.242;9.060;2023-08-24T07:30:23;4.57;;;3.88;;
55362;SDS011;41244;49.242;9.060;2023-08-24T07:32:51;5.68;;;3.90;;
55362;SDS011;41244;49.242;9.060;2023-08-24T07:35:18;7.00;;;3.97;;
55362;SDS011;41244;49.242;9.060;2023-08-24T07:37:45;7.45;;;4.13;;
55362;SDS011;41244;49.242;9.060;2023-08-24T07:40:14;7.15;;;3.90;;
55362;SDS011;41244;49.242;9.060;2023-08-24T07:42:47;5.43;;;3.80;;
55362;SDS011;41244;49.242;9.060;2023-08-24T07:45:16;5.22;;;4.10;;
55362;SDS011;41244;49.242;9.060;2023-08-24T07:47:42;5.70;;;3.88;;
55362;SDS011;41244;49.242;9.060;2023-08-24T07:50:09;6.45;;;3.72;;
55362;SDS011;41244;49.242;9.060;2023-08-24T07:52:36;4.40;;;3.80;;
55362;SDS011;41244;49.242;9.060;2023-08-24T07:55:03;6.18;;;3.50;;
55362;SDS011;41244;49.242;9.060;2023-08-24T07:57:30;6.68;;;3.53;;
55362;SDS011;41244;49.242;9.060;2023-08-24T07:59:59;5.15;;;3.83;;
55362;SDS011;41244;49.242;9.060;2023-08-24T08:02:25;8.32;;;3.58;;
55362;SDS011;41244;49.242;9.060;2023-08-24T08:04:50;5.40;;;3.60;;
55362;SDS011;41244;49.242;9.060;2023-08-24T08:07:22;4.45;;;3.58;;
55362;SDS011;41244;49.242;9.060;2023-08-24T08:09:48;5.10;;;3.50;;
55362;SDS011;41244;49.242;9.060;2023-08-24T08:12:14;6.97;;;3.55;;
55362;SDS011;41244;49.242;9.060;2023-08-24T08:14:39;9.32;;;3.60;;
55362;SDS011;41244;49.242;9.060;2023-08-24T08:17:05;5.32;;;3.70;;
55362;SDS011;41244;49.242;9.060;2023-08-24T08:19:31;12.27;;;4.72;;
55362;SDS011;41244;49.242;9.060;2023-08-24T08:21:57;6.20;;;3.67;;
55362;SDS011;41244;49.242;9.060;2023-08-24T08:24:23;11.02;;;3.80;;
55362;SDS011;41244;49.242;9.060;2023-08-24T08:26:48;6.88;;;3.58;;
55362;SDS011;41244;49.242;9.060;2023-08-24T08:29:14;6.22;;;3.70;;
55362;SDS011;41244;49.242;9.060;2023-08-24T08:31:41;8.15;;;4.00;;
55362;SDS011;41244;49.242;9.060;2023-08-24T08:34:07;8.15;;;3.30;;
55362;SDS011;41244;49.242;9.060;2023-08-24T08:36:32;4.93;;;3.50;;
55362;SDS011;41244;49.242;9.060;2023-08-24T08:38:58;4.32;;;3.78;;
55362;SDS011;41244;49.242;9.060;2023-08-24T08:41:25;8.50;;;3.50;;
55362;SDS011;41244;49.242;9.060;2023-08-24T08:43:56;5.28;;;3.60;;
55362;SDS011;41244;49.242;9.060;2023-08-24T08:46:22;5.85;;;3.40;;
55362;SDS011;41244;49.242;9.060;2023-08-24T08:48:48;8.38;;;3.70;;
55362;SDS011;41244;49.242;9.060;2023-08-24T08:51:16;6.90;;;3.58;;
55362;SDS011;41244;49.242;9.060;2023-08-24T08:53:42;7.85;;;4.13;;
55362;SDS011;41244;49.242;9.060;2023-08-24T08:56:08;9.85;;;3.60;;
55362;SDS011;41244;49.242;9.060;2023-08-24T08:58:34;7.60;;;4.10;;
55362;SDS011;41244;49.242;9.060;2023-08-24T09:01:02;6.10;;;3.45;;
55362;SDS011;41244;49.242;9.060;2023-08-24T09:03:29;8.75;;;3.67;;
55362;SDS011;41244;49.242;9.060;2023-08-24T09:05:56;4.78;;;3.60;;
55362;SDS011;41244;49.242;9.060;2023-08-24T09:08:22;5.53;;;3.40;;
55362;SDS011;41244;49.242;9.060;2023-08-24T09:10:51;8.18;;;4.15;;
55362;SDS011;41244;49.242;9.060;2023-08-24T09:13:17;6.65;;;4.13;;
55362;SDS011;41244;49.242;9.060;2023-08-24T09:15:42;6.93;;;4.00;;
55362;SDS011;41244;49.242;9.060;2023-08-24T09:18:08;5.68;;;3.58;;
55362;SDS011;41244;49.242;9.060;2023-08-24T09:20:34;6.57;;;3.67;;
55362;SDS011;41244;49.242;9.060;2023-08-24T09:23:00;4.82;;;4.07;;
55362;SDS011;41244;49.242;9.060;2023-08-24T09:25:26;10.43;;;3.70;;
55362;SDS011;41244;49.242;9.060;2023-08-24T09:27:56;8.63;;;3.70;;
55362;SDS011;41244;49.242;9.060;2023-08-24T09:30:32;5.85;;;3.83;;
55362;SDS011;41244;49.242;9.060;2023-08-24T09:33:01;6.35;;;3.95;;
55362;SDS011;41244;49.242;9.060;2023-08-24T09:35:36;5.85;;;3.92;;
55362;SDS011;41244;49.242;9.060;2023-08-24T09:38:15;9.13;;;4.10;;
55362;SDS011;41244;49.242;9.060;2023-08-24T09:40:52;6.05;;;3.65;;
55362;SDS011;41244;49.242;9.060;2023-08-24T09:43:19;6.55;;;3.83;;
55362;SDS011;41244;49.242;9.060;2023-08-24T09:45:55;8.40;;;4.00;;
55362;SDS011;41244;49.242;9.060;2023-08-24T09:48:22;9.65;;;4.15;;
55362;SDS011;41244;49.242;9.060;2023-08-24T09:50:49;6.93;;;4.15;;
55362;SDS011;41244;49.242;9.060;2023-08-24T09:53:20;5.85;;;4.07;;
55362;SDS011;41244;49.242;9.060;2023-08-24T09:55:54;6.20;;;3.75;;
55362;SDS011;41244;49.242;9.060;2023-08-24T09:58:27;5.45;;;3.85;;
55362;SDS011;41244;49.242;9.060;2023-08-24T10:00:53;9.88;;;4.05;;
55362;SDS011;41244;49.242;9.060;2023-08-24T10:03:21;11.80;;;4.00;;
55362;SDS011;41244;49.242;9.060;2023-08-24T10:05:51;7.07;;;4.03;;
55362;SDS011;41244;49.242;9.060;2023-08-24T10:08:38;11.27;;;4.50;;
55362;SDS011;41244;49.242;9.060;2023-08-24T10:11:08;5.72;;;4.10;;
55362;SDS011;41244;49.242;9.060;2023-08-24T10:13:44;10.40;;;4.13;;
55362;SDS011;41244;49.242;9.060;2023-08-24T10:16:13;6.13;;;4.13;;
55362;SDS011;41244;49.242;9.060;2023-08-24T10:18:40;10.75;;;4.25;;
55362;SDS011;41244;49.242;9.060;2023-08-24T10:21:07;5.95;;;3.60;;
55362;SDS011;41244;49.242;9.060;2023-08-24T10:23:34;9.00;;;4.07;;
55362;SDS011;41244;49.242;9.060;2023-08-24T10:26:01;4.30;;;3.90;;
55362;SDS011;41244;49.242;9.060;2023-08-24T10:28:28;6.70;;;4.20;;
55362;SDS011;41244;49.242;9.060;2023-08-24T10:30:55;8.52;;;4.53;;
55362;SDS011;41244;49.242;9.060;2023-08-24T10:33:23;8.40;;;3.88;;
55362;SDS011;41244;49.242;9.060;2023-08-24T10:35:49;7.68;;;4.10;;
55362;SDS011;41244;49.242;9.060;2023-08-24T10:38:28;6.38;;;3.97;;
55362;SDS011;41244;49.242;9.060;2023-08-24T10:40:55;7.60;;;3.90;;
55362;SDS011;41244;49.242;9.060;2023-08-24T10:43:33;6.07;;;4.32;;
55362;SDS011;41244;49.242;9.060;2023-08-24T10:46:01;5.10;;;3.97;;
55362;SDS011;41244;49.242;9.060;2023-08-24T10:48:29;6.55;;;3.63;;
55362;SDS011;41244;49.242;9.060;2023-08-24T10:51:17;7.97;;;4.03;;
55362;SDS011;41244;49.242;9.060;2023-08-24T10:56:17;5.85;;;3.83;;
55362;SDS011;41244;49.242;9.060;2023-08-24T10:58:44;7.85;;;4.07;;
55362;SDS011;41244;49.242;9.060;2023-08-24T11:01:14;4.38;;;3.80;;
55362;SDS011;41244;49.242;9.060;2023-08-24T11:03:45;7.90;;;4.07;;
55362;SDS011;41244;49.242;9.060;2023-08-24T11:06:21;7.70;;;4.30;;
55362;SDS011;41244;49.242;9.060;2023-08-24T11:08:48;4.68;;;4.28;;
55362;SDS011;41244;49.242;9.060;2023-08-24T11:11:18;5.60;;;4.25;;
55362;SDS011;41244;49.242;9.060;2023-08-24T11:16:45;6.25;;;4.20;;
55362;SDS011;41244;49.242;9.060;2023-08-24T11:19:11;9.07;;;4.20;;
55362;SDS011;41244;49.242;9.060;2023-08-24T11:21:42;5.18;;;4.00;;
55362;SDS011;41244;49.242;9.060;2023-08-24T11:24:09;8.27;;;4.47;;
55362;SDS011;41244;49.242;9.060;2023-08-24T11:26:41;10.35;;;4.22;;
55362;SDS011;41244;49.242;9.060;2023-08-24T11:29:09;7.45;;;4.43;;
55362;SDS011;41244;49.242;9.060;2023-08-24T11:31:36;6.40;;;3.80;;
55362;SDS011;41244;49.242;9.060;2023-08-24T11:34:02;6.78;;;4.05;;
55362;SDS011;41244;49.242;9.060;2023-08-24T11:36:29;8.07;;;4.32;;
55362;SDS011;41244;49.242;9.060;2023-08-24T11:44:25;6.38;;;4.10;;
55362;SDS011;41244;49.242;9.060;2023-08-24T11:46:51;7.43;;;4.50;;
55362;SDS011;41244;49.242;9.060;2023-08-24T11:49:17;10.13;;;4.68;;
55362;SDS011;41244;49.242;9.060;2023-08-24T11:51:42;9.65;;;4.50;;
55362;SDS011;41244;49.242;9.060;2023-08-24T11:54:08;8.63;;;4.30;;
55362;SDS011;41244;49.242;9.060;2023-08-24T11:56:41;7.85;;;4.40;;
55362;SDS011;41244;49.242;9.060;2023-08-24T11:59:10;6.60;;;4.60;;
55362;SDS011;41244;49.242;9.060;2023-08-24T12:01:42;10.55;;;4.50;;
55362;SDS011;41244;49.242;9.060;2023-08-24T12:04:08;6.07;;;4.18;;
55362;SDS011;41244;49.242;9.060;2023-08-24T12:06:34;6.75;;;4.95;;
55362;SDS011;41244;49.242;9.060;2023-08-24T12:09:00;7.05;;;4.50;;
55362;SDS011;41244;49.242;9.060;2023-08-24T12:11:28;8.65;;;4.63;;
55362;SDS011;41244;49.242;9.060;2023-08-24T12:13:54;8.80;;;4.47;;
55362;SDS011;41244;49.242;9.060;2023-08-24T12:16:20;7.70;;;4.38;;
55362;SDS011;41244;49.242;9.060;2023-08-24T12:18:49;6.57;;;4.57;;
55362;SDS011;41244;49.242;9.060;2023-08-24T12:21:20;7.65;;;4.60;;
55362;SDS011;41244;49.242;9.060;2023-08-24T12:26:30;5.72;;;4.30;;
55362;SDS011;41244;49.242;9.060;2023-08-24T12:29:01;8.55;;;4.00;;
55362;SDS011;41244;49.242;9.060;2023-08-24T12:31:32;7.47;;;4.18;;
55362;SDS011;41244;49.242;9.060;2023-08-24T12:33:59;7.43;;;4.30;;
55362;SDS011;41244;49.242;9.060;2023-08-24T12:36:36;9.10;;;4.65;;
55362;SDS011;41244;49.242;9.060;2023-08-24T12:39:04;7.43;;;4.53;;
55362;SDS011;41244;49.242;9.060;2023-08-24T12:41:30;9.95;;;4.63;;
55362;SDS011;41244;49.242;9.060;2023-08-24T12:43:57;7.00;;;4.45;;
55362;SDS011;41244;49.242;9.060;2023-08-24T12:46:23;7.95;;;4.90;;
55362;SDS011;41244;49.242;9.060;2023-08-24T12:48:49;9.30;;;4.40;;
55362;SDS011;41244;49.242;9.060;2023-08-24T12:51:15;6.07;;;4.95;;
55362;SDS011;41244;49.242;9.060;2023-08-24T12:53:41;7.40;;;4.53;;
55362;SDS011;41244;49.242;9.060;2023-08-24T12:56:07;7.22;;;4.75;;
55362;SDS011;41244;49.242;9.060;2023-08-24T12:58:33;9.05;;;4.60;;
55362;SDS011;41244;49.242;9.060;2023-08-24T13:00:59;9.05;;;5.43;;
55362;SDS011;41244;49.242;9.060;2023-08-24T13:03:25;8.35;;;4.75;;
55362;SDS011;41244;49.242;9.060;2023-08-24T13:05:51;6.15;;;4.55;;
55362;SDS011;41244;49.242;9.060;2023-08-24T13:08:17;6.63;;;4.30;;
55362;SDS011;41244;49.242;9.060;2023-08-24T13:10:42;7.82;;;4.70;;
55362;SDS011;41244;49.242;9.060;2023-08-24T13:13:08;7.22;;;4.47;;
55362;SDS011;41244;49.242;9.060;2023-08-24T13:15:34;5.95;;;4.50;;
55362;SDS011;41244;49.242;9.060;2023-08-24T13:18:00;5.72;;;4.63;;
55362;SDS011;41244;49.242;9.060;2023-08-24T13:20:26;4.97;;;4.50;;
55362;SDS011;41244;49.242;9.060;2023-08-24T13:22:54;5.35;;;4.50;;
55362;SDS011;41244;49.242;9.060;2023-08-24T13:25:20;6.45;;;5.00;;
55362;SDS011;41244;49.242;9.060;2023-08-24T13:27:46;5.70;;;4.75;;
55362;SDS011;41244;49.242;9.060;2023-08-24T13:30:11;6.65;;;4.68;;
55362;SDS011;41244;49.242;9.060;2023-08-24T13:32:39;11.40;;;5.60;;
55362;SDS011;41244;49.242;9.060;2023-08-24T13:35:05;10.43;;;5.53;;
55362;SDS011;41244;49.242;9.060;2023-08-24T13:37:31;5.55;;;4.90;;
55362;SDS011;41244;49.242;9.060;2023-08-24T13:40:00;9.55;;;5.68;;
55362;SDS011;41244;49.242;9.060;2023-08-24T13:42:26;7.65;;;4.88;;
55362;SDS011;41244;49.242;9.060;2023-08-24T13:44:52;5.53;;;4.90;;
55362;SDS011;41244;49.242;9.060;2023-08-24T13:47:18;7.35;;;5.00;;
55362;SDS011;41244;49.242;9.060;2023-08-24T13:49:46;10.30;;;4.88;;
55362;SDS011;41244;49.242;9.060;2023-08-24T13:52:13;8.57;;;4.63;;
55362;SDS011;41244;49.242;9.060;2023-08-24T13:54:41;5.68;;;4.68;;
55362;SDS011;41244;49.242;9.060;2023-08-24T13:57:08;7.90;;;5.28;;
55362;SDS011;41244;49.242;9.060;2023-08-24T13:59:33;7.70;;;4.93;;
55362;SDS011;41244;49.242;9.060;2023-08-24T14:01:59;8.65;;;5.25;;
55362;SDS011;41244;49.242;9.060;2023-08-24T14:04:25;9.98;;;5.15;;
55362;SDS011;41244;49.242;9.060;2023-08-24T14:06:53;5.38;;;4.85;;
55362;SDS011;41244;49.242;9.060;2023-08-24T14:09:19;8.80;;;5.40;;
55362;SDS011;41244;49.242;9.060;2023-08-24T14:11:45;5.82;;;4.95;;
55362;SDS011;41244;49.242;9.060;2023-08-24T14:14:12;6.32;;;5.35;;
55362;SDS011;41244;49.242;9.060;2023-08-24T14:16:38;7.53;;;5.68;;
55362;SDS011;41244;49.242;9.060;2023-08-24T14:19:04;7.60;;;5.13;;
55362;SDS011;41244;49.242;9.060;2023-08-24T14:21:30;6.13;;;5.32;;
55362;SDS011;41244;49.242;9.060;2023-08-24T14:23:56;5.75;;;4.80;;
55362;SDS011;41244;49.242;9.060;2023-08-24T14:26:23;8.23;;;5.00;;
55362;SDS011;41244;49.242;9.060;2023-08-24T14:28:55;9.07;;;5.30;;
55362;SDS011;41244;49.242;9.060;2023-08-24T14:31:23;6.00;;;4.65;;
55362;SDS011;41244;49.242;9.060;2023-08-24T14:33:52;10.20;;;5.13;;
55362;SDS011;41244;49.242;9.060;2023-08-24T14:36:19;8.93;;;5.65;;
55362;SDS011;41244;49.242;9.060;2023-08-24T14:38:45;6.80;;;4.72;;
55362;SDS011;41244;49.242;9.060;2023-08-24T14:41:12;10.88;;;5.60;;
55362;SDS011;41244;49.242;9.060;2023-08-24T14:43:39;8.27;;;5.15;;
55362;SDS011;41244;49.242;9.060;2023-08-24T14:46:05;6.90;;;5.00;;
55362;SDS011;41244;49.242;9.060;2023-08-24T14:48:31;7.70;;;5.55;;
55362;SDS011;41244;49.242;9.060;2023-08-24T14:50:57;7.03;;;4.88;;
55362;SDS011;41244;49.242;9.060;2023-08-24T14:53:23;11.13;;;4.90;;
55362;SDS011;41244;49.242;9.060;2023-08-24T14:55:50;7.20;;;5.20;;
55362;SDS011;41244;49.242;9.060;2023-08-24T14:58:17;8.40;;;5.38;;
55362;SDS011;41244;49.242;9.060;2023-08-24T15:00:42;10.98;;;5.63;;
55362;SDS011;41244;49.242;9.060;2023-08-24T15:03:11;10.63;;;5.43;;